Flight Track Log - Related Links

Times and Time Zones

All times are in EDT time to prevent confusion due to time zone crossing. See the GJS3707 flight status page for this flight to view local times or setup timezone preferences in your user account.

Time Position Orientation Groundspeed Altitude Reporting Facility
EDT Latitude Longitude Course Direction KTS MPH feet Rate Location/Type
Sun 10:56:15 AM 41.9667 -88.0000 270° West 200 230 3,000  Level Chicago TRACON
Sun 10:57:15 AM 41.9667 -88.0833 270° West 237 273 5,100 1,895 Climbing Chicago TRACON
Sun 10:58:00 AM 41.9667 -88.4631 270° West  Level FlightAware Approximate
Sun 10:58:09 AM 41.9867 -88.1525 291° West 248 285 6,600  Level Chicago Center
Sun 10:59:00 AM 41.9668 -88.6039 270° West  Level FlightAware Approximate
Sun 10:59:11 AM 42.0378 -88.2497 305° West 269 310 9,700  Level Chicago Center
Sun 11:00:00 AM 41.9667 -88.7447 270° West  Level FlightAware Approximate
Sun 11:00:13 AM 42.0542 -88.3494 283° West 289 333 11,900  Level Chicago Center
Sun 11:01:00 AM 41.9668 -88.8855 270° West  Level FlightAware Approximate
Sun 11:01:15 AM 42.0506 -88.4619 268° West 303 349 13,200  Level Chicago Center
Sun 11:02:17 AM 42.0461 -88.5844 267° West 324 373 15,100 1,984 Climbing Chicago Center
Sun 11:03:19 AM 42.0456 -88.7117 270° West 339 390 17,300 1,742 Climbing Chicago Center
Sun 11:04:21 AM 42.0467 -88.8669 271° West 347 399 18,700 1,403 Climbing Chicago Center
Sun 11:05:23 AM 42.0481 -89.0025 271° West 360 414 20,200 1,403 Climbing Chicago Center
Sun 11:06:25 AM 42.0517 -89.1392 272° West 366 421 21,600 1,403 Climbing Chicago Center
Sun 11:07:27 AM 42.0589 -89.2758 274° West 372 428 23,100 1,452 Climbing Chicago Center
Sun 11:08:29 AM 42.0636 -89.4131 273° West 372 428 24,600 1,500 Climbing Chicago Center
Sun 11:09:31 AM 42.0722 -89.5767 274° West 375 432 26,200 1,500 Climbing Chicago Center
Sun 11:10:33 AM 42.0794 -89.7161 274° West 373 429 27,700 1,113 Climbing Chicago Center
Sun 11:11:35 AM 42.0839 -89.8547 273° West 372 428 28,500 726 Climbing Chicago Center
Sun 11:12:37 AM 42.0894 -89.9922 273° West 377 434 29,200 677 Climbing Chicago Center
Sun 11:13:39 AM 42.0947 -90.1406 273° West 393 452 29,900 726 Climbing Chicago Center
Sun 11:14:41 AM 42.1042 -90.3150 274° West 393 452 30,700 726 Climbing Chicago Center
Sun 11:15:43 AM 42.1100 -90.4625 273° West 396 456 31,400 677 Climbing Chicago Center
Sun 11:16:45 AM 42.1189 -90.6106 275° West 400 460 32,100 677 Climbing Chicago Center
Sun 11:17:47 AM 42.1264 -90.7603 274° West 403 464 32,800 774 Climbing Chicago Center
Sun 11:18:49 AM 42.1325 -90.9106 273° West 403 464 33,700 871 Climbing Chicago Center
Sun 11:19:51 AM 42.1397 -91.0586 274° West 401 461 34,600 968 Climbing Chicago Center
Sun 11:20:53 AM 42.1550 -91.2342 277° West 395 455 35,700 677 Climbing Chicago Center
Sun 11:21:55 AM 42.2050 -91.3608 298° West 387 445 36,000 145 Climbing Chicago Center
Sun 11:22:57 AM 42.2658 -91.4914 302° West 408 470 36,000  Level Chicago Center
Sun 11:23:59 AM 42.3264 -91.6222 302° West 411 473 36,000  Level Chicago Center
Sun 11:25:01 AM 42.3853 -91.7508 302° West 406 467 36,000  Level Chicago Center
Sun 11:26:03 AM 42.4433 -91.8772 302° West 399 459 36,000  Level Chicago Center
Sun 11:27:05 AM 42.5136 -92.0314 302° West 398 458 36,000  Level Chicago Center
Sun 11:28:07 AM 42.5722 -92.1589 302° West 399 459 36,000  Level Chicago Center
Sun 11:29:09 AM 42.6286 -92.2850 301° West 394 453 36,000  Level Chicago Center
Sun 11:30:11 AM 42.6869 -92.4136 302° West 400 460 36,000 48 Level Chicago Center
Sun 11:31:13 AM 42.7442 -92.5411 301° West 398 458 36,100  Climbing Chicago Center
Sun 11:32:15 AM 42.8142 -92.6972 301° West 397 457 36,000 -48 Descending Chicago Center
Sun 11:33:17 AM 42.8689 -92.8217 301° West 394 453 36,000  Level Chicago Center
Sun 11:34:19 AM 42.9272 -92.9506 302° West 399 459 36,000  Level Chicago Center
Sun 11:35:21 AM 42.9833 -93.0772 301° West 395 455 36,000  Level Chicago Center
Sun 11:36:23 AM 43.0383 -93.2028 301° West 390 449 36,000  Level Chicago Center
Sun 11:37:25 AM 43.1014 -93.3581 299° West 390 449 36,000  Level Chicago Center
Sun 11:38:27 AM 43.1222 -93.5008 281° West 390 449 36,000  Level Chicago Center
Sun 11:39:29 AM 43.1492 -93.6417 285° West 386 444 36,000  Level Chicago Center
Sun 11:40:31 AM 43.1739 -93.7847 283° West 387 445 36,000  Level Chicago Center
Sun 11:41:33 AM 43.1986 -93.9267 283° West 387 445 36,000  Level Chicago Center
Sun 11:42:55 AM 43.2297 -94.1275 282° West 388 447 36,000  Level Minneapolis Center
Sun 11:43:58 AM 43.2611 -94.2953 284° West 386 444 36,000  Level Minneapolis Center
Sun 11:45:00 AM 43.2858 -94.4381 283° West 385 443 36,000  Level Minneapolis Center
Sun 11:46:02 AM 43.3089 -94.5822 282° West 386 444 36,000  Level Minneapolis Center
Sun 11:47:04 AM 43.3325 -94.7250 283° West 386 444 36,000  Level Minneapolis Center
Sun 11:48:06 AM 43.3564 -94.8694 283° West 386 444 36,000  Level Minneapolis Center
Sun 11:49:08 AM 43.3797 -95.0108 283° West 382 440 36,000  Level Minneapolis Center
Sun 11:50:10 AM 43.4069 -95.1836 282° West 385 443 36,000  Level Minneapolis Center
Sun 11:51:12 AM 43.4303 -95.3275 283° West 386 444 36,000  Level Minneapolis Center
Sun 11:52:14 AM 43.4528 -95.4711 282° West 385 443 36,000  Level Minneapolis Center
Sun 11:53:29 AM 43.4797 -95.6456 282° West 388 447 36,000  Level Minneapolis Center
Sun 11:54:31 AM 43.5022 -95.7889 282° West 384 442 36,000  Level Minneapolis Center
Sun 11:55:33 AM 43.5242 -95.9347 282° West 386 444 36,000  Level Minneapolis Center
Sun 11:56:35 AM 43.5508 -96.1092 282° West 387 445 36,000  Level Minneapolis Center
Sun 11:57:37 AM 43.5725 -96.2561 282° West 389 448 36,000  Level Minneapolis Center
Sun 11:58:39 AM 43.5947 -96.4025 282° West 389 448 36,000  Level Minneapolis Center
Sun 11:59:45 AM 43.6153 -96.5506 281° West 392 451 36,000  Level Minneapolis Center
Sun 12:00:47 PM 43.6411 -96.7278 281° West 392 451 36,000  Level Minneapolis Center
Sun 12:01:49 PM 43.6572 -96.8764 279° West 391 450 36,000  Level Minneapolis Center
Sun 12:02:51 PM 43.6681 -97.0275 276° West 394 453 36,000  Level Minneapolis Center
Sun 12:03:53 PM 43.6808 -97.1789 277° West 396 456 36,000  Level Minneapolis Center
Sun 12:04:55 PM 43.6928 -97.3319 276° West 399 459 36,000  Level Minneapolis Center
Sun 12:05:57 PM 43.7033 -97.4842 276° West 398 458 36,000  Level Minneapolis Center
Sun 12:06:59 PM 43.7150 -97.6378 276° West 401 461 36,000  Level Minneapolis Center
Sun 12:08:02 PM 43.7283 -97.8225 276° West 403 464 36,000  Level Minneapolis Center
Sun 12:09:04 PM 43.7392 -97.9769 276° West 404 465 36,000  Level Minneapolis Center
Sun 12:10:06 PM 43.7506 -98.1308 276° West 403 464 36,000  Level Minneapolis Center
Sun 12:11:08 PM 43.7600 -98.2861 275° West 405 466 36,000  Level Minneapolis Center
Sun 12:12:10 PM 43.7700 -98.4428 275° West 409 471 36,000  Level Minneapolis Center
Sun 12:13:12 PM 43.7800 -98.5975 275° West 405 466 36,000  Level Minneapolis Center
Sun 12:14:14 PM 43.7922 -98.7828 275° West 408 470 36,000  Level Minneapolis Center
Sun 12:15:16 PM 43.8019 -98.9364 275° West 402 463 36,000  Level Minneapolis Center
Sun 12:16:18 PM 43.8117 -99.0917 275° West 404 465 36,000  Level Minneapolis Center
Sun 12:17:20 PM 43.8214 -99.2461 275° West 403 464 36,000  Level Minneapolis Center
Sun 12:18:22 PM 43.8300 -99.4033 274° West 406 467 36,000  Level Minneapolis Center
Sun 12:19:24 PM 43.8381 -99.5611 274° West 407 468 36,000  Level Minneapolis Center
Sun 12:20:26 PM 43.8475 -99.7547 274° West 413 475 36,000  Level Minneapolis Center
Sun 12:21:28 PM 43.8569 -99.9119 275° West 410 472 36,000  Level Minneapolis Center
Sun 12:22:30 PM 43.8647 -100.0675 274° West 407 468 36,000  Level Minneapolis Center
Sun 12:23:33 PM 43.8717 -100.2258 274° West 408 470 36,000  Level Minneapolis Center
Sun 12:24:35 PM 43.8797 -100.3831 274° West 408 470 36,000  Level Minneapolis Center
Sun 12:25:37 PM 43.8875 -100.5419 274° West 411 473 36,000  Level Minneapolis Center
Sun 12:26:39 PM 43.8944 -100.7000 274° West 412 474 36,000  Level Minneapolis Center
Sun 12:27:41 PM 43.9036 -100.8931 274° West 415 478 36,000  Level Minneapolis Center
Sun 12:28:43 PM 43.9097 -101.0522 273° West 414 476 36,000  Level Minneapolis Center
Sun 12:29:45 PM 43.9164 -101.2133 273° West 417 480 36,000  Level Minneapolis Center
Sun 12:30:47 PM 43.9225 -101.3739 273° West 417 480 36,000  Level Minneapolis Center
Sun 12:31:49 PM 43.9264 -101.5331 272° West 415 478 36,000  Level Minneapolis Center
Sun 12:32:51 PM 43.9317 -101.6933 273° West 415 478 36,000  Level Minneapolis Center
Sun 12:33:53 PM 43.9383 -101.8878 273° West 417 480 36,000  Level Minneapolis Center
Sun 12:34:55 PM 43.9444 -102.0511 273° West 420 483 36,000  Level Minneapolis Center
Sun 12:35:57 PM 43.9489 -102.2147 272° West 422 486 36,000  Level Minneapolis Center
Sun 12:37:00 PM 43.9550 -102.3789 273° West 424 488 36,000  Level Minneapolis Center
Sun 12:38:02 PM 43.9586 -102.5414 272° West 424 488 36,000  Level Minneapolis Center
Sun 12:39:04 PM 43.9633 -102.7058 272° West 424 488 36,000  Level Minneapolis Center
Sun 12:40:06 PM 43.9703 -102.9031 273° West 425 489 36,000  Level Minneapolis Center
Sun 12:41:08 PM 43.9736 -103.0675 272° West 426 490 36,000  Level Minneapolis Center
Sun 12:42:10 PM 43.9797 -103.2333 273° West 428 493 36,000  Level Minneapolis Center
Sun 12:43:12 PM 43.9828 -103.3983 272° West 428 493 36,000  Level Minneapolis Center
Sun 12:44:05 PM 43.9872 -103.5456 272° West 428 493 36,000  Level Salt Lake Center
Sun 12:44:36 PM 43.9878 -103.6244 271° West 423 487 36,000  Level Denver Center
Sun 12:45:38 PM 43.9911 -103.8075 272° West 426 490 36,000  Level Denver Center
Sun 12:46:40 PM 43.9939 -103.9647 271° West 427 491 36,000  Level Denver Center
Sun 12:47:42 PM 43.9964 -104.1469 271° West 424 488 36,000  Level Denver Center
Sun 12:48:44 PM 43.9972 -104.3022 270° West 422 486 36,000  Level Denver Center
Sun 12:49:46 PM 43.9992 -104.4814 271° West 419 482 36,000  Level Denver Center
Sun 12:50:48 PM 44.0011 -104.6364 271° West 420 483 36,000  Level Denver Center
Sun 12:51:50 PM 44.0022 -104.8175 271° West 421 484 36,000  Level Denver Center
Sun 12:52:52 PM 44.0031 -104.9708 270° West 418 481 36,000  Level Denver Center
Sun 12:53:54 PM 44.0042 -105.1239 271° West 417 480 36,000  Level Denver Center
Sun 12:54:56 PM 44.0042 -105.3028 270° West 416 479 36,000  Level Denver Center
Sun 12:55:58 PM 44.0044 -105.4547 270° West 414 476 36,000  Level Denver Center
Sun 12:57:00 PM 44.0053 -105.6281 270° West 407 468 36,000  Level Denver Center
Sun 12:58:14 PM 44.0050 -105.7794 270° West 409 471 36,000  Level Denver Center
Sun 12:59:17 PM 44.0031 -105.9789 269° West 407 468 36,000  Level Denver Center
Sun 01:00:19 PM 44.0036 -106.1531 270° West 406 467 36,000  Level Denver Center
Sun 01:01:21 PM 44.0017 -106.3033 269° West 407 468 36,000  Level Denver Center
Sun 01:02:23 PM 44.0008 -106.4764 270° West 402 463 36,000  Level Denver Center
Sun 01:03:25 PM 44.0081 -106.6228 274° West 398 458 36,000  Level Denver Center
Sun 01:04:27 PM 44.0128 -106.7703 273° West 401 461 36,000  Level Denver Center
Sun 01:05:29 PM 44.0194 -106.9283 273° West 395 455 36,000  Level Denver Center
Sun 01:06:31 PM 44.0244 -107.0814 273° West 395 455 36,000  Level Denver Center
Sun 01:07:33 PM 44.0303 -107.2653 273° West 396 456 36,000  Level Denver Center
Sun 01:08:35 PM 44.0356 -107.4181 273° West 396 456 36,000  Level Denver Center
Sun 01:09:37 PM 44.0394 -107.5717 272° West 396 456 36,000  Level Denver Center
Sun 01:10:39 PM 44.0450 -107.7247 273° West 397 457 36,000  Level Denver Center
Sun 01:11:41 PM 44.0494 -107.8769 272° West 394 453 36,000  Level Denver Center
Sun 01:13:02 PM 44.0553 -108.0947 272° West 400 460 36,000  Level Salt Lake Center
Sun 01:14:04 PM 44.0581 -108.2481 271° West 398 458 36,000  Level Salt Lake Center
Sun 01:15:06 PM 44.0617 -108.4014 272° West 396 456 36,000  Level Salt Lake Center
Sun 01:16:09 PM 44.0664 -108.5542 273° West 396 456 36,000  Level Salt Lake Center
Sun 01:17:10 PM 44.0692 -108.7069 272° West 396 456 36,000  Level Salt Lake Center
Sun 01:18:12 PM 44.0739 -108.8883 272° West 392 451 36,000  Level Salt Lake Center
Sun 01:19:14 PM 44.0769 -109.0408 272° West 394 453 36,000  Level Salt Lake Center
Sun 01:20:16 PM 44.0786 -109.1947 271° West 397 457 36,000  Level Salt Lake Center
Sun 01:21:18 PM 44.0814 -109.3464 272° West 394 453 36,000  Level Salt Lake Center
Sun 01:22:21 PM 44.0839 -109.5189 271° West 390 449 36,000  Level Salt Lake Center
Sun 01:23:23 PM 44.0867 -109.6675 272° West 397 457 36,000  Level Salt Lake Center
Sun 01:24:25 PM 44.0875 -109.8142 271° West 397 457 36,000  Level Salt Lake Center
Sun 01:26:29 PM 44.0911 -110.1339 271° West 397 457 36,000  Level Salt Lake Center
Sun 01:27:31 PM 44.0917 -110.3058 270° West 398 458 36,000  Level Salt Lake Center
Sun 01:28:33 PM 44.0928 -110.4522 271° West 396 456 36,000  Level Salt Lake Center
Sun 01:29:35 PM 44.0928 -110.6247 270° West 398 458 36,000  Level Salt Lake Center
Sun 01:30:37 PM 44.0933 -110.7725 270° West 398 458 36,000  Level Salt Lake Center
Sun 01:31:39 PM 44.0936 -110.9456 270° West 400 460 36,000  Level Salt Lake Center
Sun 01:32:41 PM 44.0939 -111.0939 270° West 399 459 36,000  Level Salt Lake Center
Sun 01:33:43 PM 44.0939 -111.2417 270° West 398 458 36,000  Level Salt Lake Center
Sun 01:34:45 PM 44.0942 -111.4172 270° West 402 463 36,000  Level Salt Lake Center
Sun 01:35:47 PM 44.0931 -111.5669 269° West 402 463 36,000  Level Salt Lake Center
Sun 01:36:49 PM 44.0925 -111.7425 270° West 404 465 36,000  Level Salt Lake Center
Sun 01:37:51 PM 44.0917 -111.8931 270° West 404 465 36,000  Level Salt Lake Center
Sun 01:38:53 PM 44.0908 -112.0689 270° West 405 466 36,000  Level Salt Lake Center
Sun 01:39:55 PM 44.0867 -112.2172 268° West 402 463 36,000  Level Salt Lake Center
Sun 01:40:57 PM 44.0672 -112.3908 261° West 407 468 36,000  Level Salt Lake Center
Sun 01:41:59 PM 44.0517 -112.5403 262° West 407 468 36,000  Level Salt Lake Center
Sun 01:43:01 PM 44.0331 -112.6886 260° West 406 467 36,000  Level Salt Lake Center
Sun 01:44:03 PM 44.0131 -112.8603 261° West 403 464 36,000  Level Salt Lake Center
Sun 01:45:05 PM 43.9953 -113.0072 261° West 403 464 36,000  Level Salt Lake Center
Sun 01:46:07 PM 43.9744 -113.1794 261° West 405 466 36,000  Level Salt Lake Center
Sun 01:47:09 PM 43.9572 -113.3278 261° West 407 468 36,000  Level Salt Lake Center
Sun 01:48:11 PM 43.9356 -113.4997 260° West 405 466 36,000  Level Salt Lake Center
Sun 01:49:13 PM 43.9169 -113.6503 260° West 411 473 36,000  Level Salt Lake Center
Sun 01:50:17 PM 43.8950 -113.8219 260° West 406 467 36,000  Level Salt Lake Center
Sun 01:51:17 PM 43.8753 -113.9819 260° West 403 464 36,000 -492 Level Salt Lake Center
Sun 01:52:19 PM 43.8378 -114.1244 250° West 408 470 35,000 -1,210 Descending Salt Lake Center
Sun 01:53:21 PM 43.8036 -114.2658 252° West 403 464 33,500 -1,403 Descending Salt Lake Center
Sun 01:54:23 PM 43.7622 -114.4347 251° West 418 481 32,100 -1,392 Descending Salt Lake Center
Sun 01:55:26 PM 43.7464 -114.5892 262° West 423 487 30,600 -1,584 Descending Salt Lake Center
Sun 01:56:28 PM 43.7264 -114.7694 261° West 423 487 28,800 -1,645 Descending Salt Lake Center
Sun 01:57:30 PM 43.7103 -114.9200 262° West 416 479 27,200 -1,984 Descending Salt Lake Center
Sun 01:58:32 PM 43.6919 -115.0944 262° West 410 472 24,700 -2,371 Descending Salt Lake Center
Sun 01:59:34 PM 43.6758 -115.2400 261° West 401 461 22,300 -2,516 Descending Salt Lake Center
Sun 02:00:36 PM 43.6589 -115.4006 262° West 386 444 19,500 -2,613 Descending Salt Lake Center
Sun 02:01:38 PM 43.5994 -115.5197 235° Southwest 365 420 16,900 -2,565 Descending Salt Lake Center
Sun 02:02:40 PM 43.5364 -115.6306 232° Southwest 353 406 14,200 -2,565 Descending Salt Lake Center
Sun 02:03:42 PM 43.4764 -115.7350 232° Southwest 335 386 11,600 -2,274 Descending Salt Lake Center
Sun 02:04:44 PM 43.4308 -115.8336 238° Southwest 290 334 9,500 -2,177 Descending Salt Lake Center
Sun 02:05:46 PM 43.4561 -115.9239 291° West 270 311 7,100 -1,500 Descending Salt Lake Center
Sun 02:06:48 PM 43.4847 -116.0125 294° West 243 280 6,400 -677 Descending Salt Lake Center

Login

Don't have an account? Register now (free) for customized features, flight alerts, and more!